Home > Products > Valid Products > TAF

000
FTUS42 KCAE 291739
TAFAGS
TAF
KAGS 291739Z 2918/3018 10006KT P6SM VCSH BKN050 BKN150
      TEMPO 2918/2919 VRB10G20KT 3SM TSRA BKN030CB
     FM300200 VRB03KT P6SM SCT050 BKN150
     FM300800 00000KT 6SM BR SCT250
     FM301400 VRB03KT P6SM SCT250=



000
FTUS42 KCAE 291739
TAFCUB
TAF
KCUB 291739Z 2918/3018 12006KT P6SM SCT040
     FM291900 12006KT P6SM VCSH BKN050 BKN150
     FM300200 VRB03KT P6SM SCT050 BKN150=



000
FTUS42 KCAE 291739
TAFDNL
TAF
KDNL 291739Z 2918/3018 10006KT P6SM VCSH BKN050 BKN150
      TEMPO 2918/2919 VRB10G20KT 3SM TSRA BKN030CB
     FM300200 VRB03KT P6SM SCT050 BKN150=



000
FTUS42 KCAE 291739
TAFOGB
TAF
KOGB 291739Z 2918/3018 12006KT P6SM SCT040
     FM291900 12006KT P6SM VCSH BKN050 BKN150
     FM300000 VRB03KT P6SM SCT050 BKN150
     FM300800 00000KT 6SM BR SCT250
     FM301400 VRB03KT P6SM SCT250=



000
FTUS42 KCAE 291739
TAFCAE
TAF
KCAE 291739Z 2918/3018 12006KT P6SM SCT040
     FM291900 12006KT P6SM VCSH BKN050 BKN150
     FM300200 VRB03KT P6SM SCT050 BKN150=



000
FTUS42 KCAE 291438 AAA
TAFCUB
TAF AMD
KCUB 291438Z 2915/3012 VRB03KT P6SM SCT060 BKN150
     FM291600 12006KT P6SM SCT040
     FM291900 12006KT P6SM VCSH BKN050 BKN150
     FM300200 VRB03KT P6SM SCT050 BKN150=



000
FTUS42 KCAE 291438 AAA
TAFDNL
TAF AMD
KDNL 291438Z 2915/3012 12006KT P6SM SCT040 SCT120
     FM291900 08006KT P6SM VCSH BKN050 BKN150
     FM300200 VRB03KT P6SM SCT050 BKN150=



000
FTUS42 KCAE 291438 AAA
TAFOGB
TAF AMD
KOGB 291438Z 2915/3012 VRB03KT P6SM FEW060 BKN150
     FM291600 12006KT P6SM SCT040
     FM292000 12006KT P6SM VCSH BKN050 BKN150
     FM300000 VRB03KT P6SM SCT050 BKN150=



000
FTUS42 KCAE 291438 AAA
TAFAGS
TAF AMD
KAGS 291438Z 2915/3012 12006KT P6SM SCT040 SCT120
     FM291900 08006KT P6SM VCSH BKN050 BKN150
     FM300200 VRB03KT P6SM SCT050 BKN150=



000
FTUS42 KCAE 291438 AAA
TAFCAE
TAF AMD
KCAE 291438Z 2915/3012 VRB03KT P6SM SCT060 BKN150
     FM291600 12006KT P6SM SCT040
     FM291900 12006KT P6SM VCSH BKN050 BKN150
     FM300200 VRB03KT P6SM SCT050 BKN150=



000
FTUS42 KCAE 291140
TAFCAE
TAF
KCAE 291140Z 2912/3012 VRB03KT P6SM SCT060 BKN150
     FM291600 10006KT P6SM SCT040
     FM291900 10006KT P6SM VCSH BKN050 BKN150
     FM300200 VRB03KT P6SM SCT050 BKN150=



000
FTUS42 KCAE 291140
TAFCUB
TAF
KCUB 291140Z 2912/3012 VRB03KT P6SM SCT060 BKN150
     FM291600 10006KT P6SM SCT040
     FM291900 10006KT P6SM VCSH BKN050 BKN150
     FM300200 VRB03KT P6SM SCT050 BKN150=



000
FTUS42 KCAE 291140
TAFDNL
TAF
KDNL 291140Z 2912/3012 VRB03KT P6SM FEW070 BKN150
     FM291600 08006KT P6SM SCT040
     FM291900 08006KT P6SM VCSH BKN050 BKN150
     FM300200 VRB03KT P6SM SCT050 BKN150=



000
FTUS42 KCAE 291140
TAFDNL
TAF
KDNL 291140Z 2912/3012 VRB03KT P6SM FEW070 BKN150
     FM291600 08006KT P6SM SCT040
     FM291900 08006KT P6SM VCSH BKN050 BKN150
     FM300200 VRB03KT P6SM SCT050 BKN150=



000
FTUS42 KCAE 291140
TAFCUB
TAF
KCUB 291140Z 2912/3012 VRB03KT P6SM SCT060 BKN150
     FM291600 10006KT P6SM SCT040
     FM291900 10006KT P6SM VCSH BKN050 BKN150
     FM300200 VRB03KT P6SM SCT050 BKN150=



000
FTUS42 KCAE 291140
TAFOGB
TAF
KOGB 291140Z 2912/3012 VRB03KT P6SM FEW060 BKN150
     FM291600 09006KT P6SM SCT040
     FM292000 10006KT P6SM VCSH BKN050 BKN150
     FM300000 VRB03KT P6SM SCT050 BKN150=



000
FTUS42 KCAE 291140
TAFCAE
TAF
KCAE 291140Z 2912/3012 VRB03KT P6SM SCT060 BKN150
     FM291600 10006KT P6SM SCT040
     FM291900 10006KT P6SM VCSH BKN050 BKN150
     FM300200 VRB03KT P6SM SCT050 BKN150=



000
FTUS42 KCAE 291140
TAFOGB
TAF
KOGB 291140Z 2912/3012 VRB03KT P6SM FEW060 BKN150
     FM291600 09006KT P6SM SCT040
     FM292000 10006KT P6SM VCSH BKN050 BKN150
     FM300000 VRB03KT P6SM SCT050 BKN150=



000
FTUS42 KCAE 291140
TAFAGS
TAF
KAGS 291140Z 2912/3012 VRB03KT P6SM FEW070 BKN150
     FM291600 08006KT P6SM SCT040
     FM291900 08006KT P6SM VCSH BKN050 BKN150
     FM300200 VRB03KT P6SM SCT050 BKN150=



000
FTUS42 KCAE 291140
TAFAGS
TAF
KAGS 291140Z 2912/3012 VRB03KT P6SM FEW070 BKN150
     FM291600 08006KT P6SM SCT040
     FM291900 08006KT P6SM VCSH BKN050 BKN150
     FM300200 VRB03KT P6SM SCT050 BKN150=



000
FTUS42 KCAE 291030 AAB
TAFAGS
TAF AMD
KAGS 291030Z 2911/3006 VRB03KT P6SM FEW070 BKN150
     FM291600 08006KT P6SM SCT040
     FM291900 08006KT P6SM VCSH BKN050 BKN150
     FM300200 VRB03KT P6SM SCT050 BKN150=



000
FTUS42 KCAE 291029 AAB
TAFOGB
TAF AMD
KOGB 291029Z 2910/3006 VRB03KT P6SM FEW060 BKN150
     FM291600 09006KT P6SM SCT040
     FM292000 10006KT P6SM VCSH BKN050 BKN150
     FM300000 VRB03KT P6SM SCT050 BKN150=



000
FTUS42 KCAE 291029 AAB
TAFOGB
TAF AMD
KOGB 291029Z 2910/3006 VRB03KT P6SM FEW060 BKN150
     FM291600 09006KT P6SM SCT040
     FM292000 10006KT P6SM VCSH BKN050 BKN150
     FM300000 VRB03KT P6SM SCT050 BKN150=



000
FTUS42 KCAE 291028 AAB
TAFCUB
TAF AMD
KCUB 291028Z 2910/3006 VRB03KT P6SM SCT060 BKN150
     FM291600 10006KT P6SM SCT040
     FM291900 10006KT P6SM VCSH BKN050 BKN150
     FM300200 VRB03KT P6SM SCT050 BKN150=



000
FTUS42 KCAE 291027 AAB
TAFCAE
TAF AMD
KCAE 291027Z 2910/3006 VRB03KT P6SM SCT060 BKN150
     FM291600 10006KT P6SM SCT040
     FM291900 10006KT P6SM VCSH BKN050 BKN150
     FM300200 VRB03KT P6SM SCT050 BKN150=



000
FTUS42 KCAE 291027 AAB
TAFCAE
TAF AMD
KCAE 291027Z 2910/3006 VRB03KT P6SM SCT060 BKN150
     FM291600 10006KT P6SM SCT040
     FM291900 10006KT P6SM VCSH BKN050 BKN150
     FM300200 VRB03KT P6SM SCT050 BKN150=



000
FTUS42 KCAE 290854 AAA
TAFAGS
TAF AMD
KAGS 290854Z 2909/3006 VRB03KT P6SM FEW070 BKN150
      TEMPO 2909/2912 3SM BR SCT007
     FM291600 10006KT P6SM SCT040=



000
FTUS42 KCAE 290854 AAA
TAFDNL
TAF AMD
KDNL 290854Z 2909/3006 VRB03KT P6SM FEW070 BKN150
     FM291600 10006KT P6SM SCT040=



000
FTUS42 KCAE 290854 AAA
TAFOGB
TAF AMD
KOGB 290854Z 2909/3006 VRB03KT P6SM FEW060 BKN150
      TEMPO 2910/2912 3SM BR SCT007
     FM291600 09006KT P6SM SCT040=



000
FTUS42 KCAE 290854 AAA
TAFCUB
TAF AMD
KCUB 290854Z 2909/3006 VRB03KT P6SM SCT060 BKN150
      TEMPO 2910/2912 5SM BR SCT015
     FM291600 10006KT P6SM SCT040=



000
FTUS42 KCAE 290854 AAA
TAFCAE
TAF AMD
KCAE 290854Z 2909/3006 VRB03KT P6SM SCT060 BKN150
      TEMPO 2910/2912 5SM BR SCT015
     FM291600 10006KT P6SM SCT040=



000
FTUS42 KCAE 290535
TAFCAE
TAF
KCAE 290535Z 2906/3006 VRB03KT P6SM BKN150
     FM290900 VRB03KT 4SM BR FEW015
     FM291200 VRB04KT P6SM SCT025
     FM291600 10006KT P6SM SCT040=



000
FTUS42 KCAE 290535
TAFAGS
TAF
KAGS 290535Z 2906/3006 VRB03KT P6SM BKN150
     FM290800 VRB03KT 4SM BR SCT007
      TEMPO 2909/2912 2SM BR BKN007
     FM291300 VRB03KT P6SM SCT015
     FM291600 10006KT P6SM SCT040=



000
FTUS42 KCAE 290535
TAFDNL
TAF
KDNL 290535Z 2906/3006 VRB03KT P6SM BKN150
     FM291000 VRB03KT 5SM BR SCT015
     FM291300 VRB04KT P6SM SCT040
     FM291600 10006KT P6SM SCT040=



000
FTUS42 KCAE 290535
TAFCUB
TAF
KCUB 290535Z 2906/3006 VRB03KT P6SM BKN150
     FM290900 VRB03KT 4SM BR FEW015
     FM291200 VRB04KT P6SM SCT025
     FM291600 10006KT P6SM SCT040=



000
FTUS42 KCAE 290535
TAFOGB
TAF
KOGB 290535Z 2906/3006 VRB03KT P6SM BKN150
     FM290800 00000KT 4SM BR SCT007
      TEMPO 2910/2912 2SM BR BKN007
     FM291300 VRB04KT P6SM SCT015
     FM291600 09006KT P6SM SCT040=



000
FTUS42 KCAE 290233 AAA
TAFAGS
TAF AMD
KAGS 290233Z 2903/2924 VRB03KT P6SM BKN150
     FM291000 00000KT 3SM BR SCT007
     FM291300 12005KT P6SM SCT015
     FM292000 09006KT P6SM SCT040=



000
FTUS42 KCAE 290233 AAC
TAFCUB
TAF AMD
KCUB 290233Z 2903/2924 VRB03KT P6SM BKN120
     FM291000 VRB03KT 4SM BR SCT015
     FM291300 VRB04KT P6SM SCT025
     FM292000 09006KT P6SM SCT040=



000
FTUS42 KCAE 290233 AAA
TAFOGB
TAF AMD
KOGB 290233Z 2903/2924 VRB03KT P6SM BKN150
     FM291000 00000KT 3SM BR SCT007
     FM291400 09005KT P6SM SCT015
     FM292000 09006KT P6SM SCT040=



000
FTUS42 KCAE 290233 AAA
TAFDNL
TAF AMD
KDNL 290233Z 2903/2924 VRB03KT P6SM BKN150
     FM291000 VRB03KT P6SM SCT025
     FM291300 12005KT P6SM SCT060=



000
FTUS42 KCAE 290233 AAC
TAFCAE
TAF AMD
KCAE 290233Z 2903/2924 VRB03KT P6SM BKN120
     FM291000 VRB03KT 4SM BR SCT015
     FM291300 VRB04KT P6SM SCT025
     FM292000 09006KT P6SM SCT040=



000
FTUS42 KCAE 290233 AAA
TAFOGB
TAF AMD
KOGB 290233Z 2903/2924 VRB03KT P6SM BKN150
     FM291000 00000KT 3SM BR SCT007
     FM291400 09005KT P6SM SCT015
     FM292000 09006KT P6SM SCT040=



000
FTUS42 KCAE 290233 AAA
TAFAGS
TAF AMD
KAGS 290233Z 2903/2924 VRB03KT P6SM BKN150
     FM291000 00000KT 3SM BR SCT007
     FM291300 12005KT P6SM SCT015
     FM292000 09006KT P6SM SCT040=



000
FTUS42 KCAE 290233 AAC
TAFCAE
TAF AMD
KCAE 290233Z 2903/2924 VRB03KT P6SM BKN120
     FM291000 VRB03KT 4SM BR SCT015
     FM291300 VRB04KT P6SM SCT025
     FM292000 09006KT P6SM SCT040=



000
FTUS42 KCAE 290233 AAC
TAFCUB
TAF AMD
KCUB 290233Z 2903/2924 VRB03KT P6SM BKN120
     FM291000 VRB03KT 4SM BR SCT015
     FM291300 VRB04KT P6SM SCT025
     FM292000 09006KT P6SM SCT040=



000
FTUS42 KCAE 290233 AAA
TAFDNL
TAF AMD
KDNL 290233Z 2903/2924 VRB03KT P6SM BKN150
     FM291000 VRB03KT P6SM SCT025
     FM291300 12005KT P6SM SCT060=



000
FTUS42 KCAE 290109 AAB
TAFCUB
TAF AMD
KCUB 290109Z 2901/2924 VRB03KT P6SM BKN120
     FM291000 VRB03KT 4SM BR BKN015
     FM291300 VRB04KT P6SM SCT025
     FM292000 09006KT P6SM SCT040=



000
FTUS42 KCAE 290109 AAB
TAFCAE
TAF AMD
KCAE 290109Z 2901/2924 VRB03KT P6SM BKN120
     FM291000 VRB03KT 4SM BR BKN015
     FM291300 VRB04KT P6SM SCT025
     FM292000 09006KT P6SM SCT040=



000
FTUS42 KCAE 290109 AAB
TAFCAE
TAF AMD
KCAE 290109Z 2901/2924 VRB03KT P6SM BKN120
     FM291000 VRB03KT 4SM BR BKN015
     FM291300 VRB04KT P6SM SCT025
     FM292000 09006KT P6SM SCT040=



000
FTUS42 KCAE 290109 AAB
TAFCUB
TAF AMD
KCUB 290109Z 2901/2924 VRB03KT P6SM BKN120
     FM291000 VRB03KT 4SM BR BKN015
     FM291300 VRB04KT P6SM SCT025
     FM292000 09006KT P6SM SCT040=



000
FTUS42 KCAE 290025 AAA
TAFCAE
TAF AMD
KCAE 290025Z 2900/2924 VRB05KT P6SM BKN120
      TEMPO 2900/2901 5SM -SHRA BKN050
     FM290200 VRB03KT P6SM BKN150
     FM291000 VRB03KT 4SM BR BKN015
     FM291300 VRB04KT P6SM SCT025
     FM292000 09006KT P6SM SCT040=



000
FTUS42 KCAE 290025 AAA
TAFCUB
TAF AMD
KCUB 290025Z 2900/2924 VRB05KT P6SM BKN120
      TEMPO 2900/2901 4SM -SHRA BR BKN040
     FM290200 VRB03KT P6SM BKN150
     FM291000 VRB03KT 4SM BR BKN015
     FM291300 VRB04KT P6SM SCT025
     FM292000 09006KT P6SM SCT040=



000
FTUS42 KCAE 290025 AAA
TAFCAE
TAF AMD
KCAE 290025Z 2900/2924 VRB05KT P6SM BKN120
      TEMPO 2900/2901 5SM -SHRA BKN050
     FM290200 VRB03KT P6SM BKN150
     FM291000 VRB03KT 4SM BR BKN015
     FM291300 VRB04KT P6SM SCT025
     FM292000 09006KT P6SM SCT040=



000
FTUS42 KCAE 290025 AAA
TAFCUB
TAF AMD
KCUB 290025Z 2900/2924 VRB05KT P6SM BKN120
      TEMPO 2900/2901 4SM -SHRA BR BKN040
     FM290200 VRB03KT P6SM BKN150
     FM291000 VRB03KT 4SM BR BKN015
     FM291300 VRB04KT P6SM SCT025
     FM292000 09006KT P6SM SCT040=



000
FTUS42 KCAE 282320
TAFOGB
TAF
KOGB 282320Z 2900/2924 09006KT P6SM SCT100
     FM290100 VRB03KT P6SM BKN150
     FM291000 00000KT 2SM BR BKN007
     FM291400 09005KT P6SM SCT015
     FM292000 09006KT P6SM SCT040=



000
FTUS42 KCAE 282320
TAFDNL
TAF
KDNL 282320Z 2900/2924 14007KT P6SM SCT100
     FM290300 VRB03KT P6SM BKN150
     FM291000 VRB03KT P6SM BKN025
     FM291300 12005KT P6SM SCT060=



000
FTUS42 KCAE 282320
TAFAGS
TAF
KAGS 282320Z 2900/2924 14007KT P6SM SCT100
     FM290100 VRB03KT P6SM BKN150
     FM291000 00000KT 2SM BR BKN007
     FM291300 12005KT P6SM SCT015
     FM292000 09006KT P6SM SCT040=



000
FTUS42 KCAE 282320
TAFOGB
TAF
KOGB 282320Z 2900/2924 09006KT P6SM SCT100
     FM290100 VRB03KT P6SM BKN150
     FM291000 00000KT 2SM BR BKN007
     FM291400 09005KT P6SM SCT015
     FM292000 09006KT P6SM SCT040=



000
FTUS42 KCAE 282320
TAFCAE
TAF
KCAE 282320Z 2900/2924 11006KT P6SM BKN150
      TEMPO 2900/2901 -SHRA BKN040
     FM290200 VRB03KT P6SM BKN150
     FM291000 VRB03KT 4SM BR BKN015
     FM291300 VRB04KT P6SM SCT025
     FM292000 09006KT P6SM SCT040=



000
FTUS42 KCAE 282320
TAFDNL
TAF
KDNL 282320Z 2900/2924 14007KT P6SM SCT100
     FM290300 VRB03KT P6SM BKN150
     FM291000 VRB03KT P6SM BKN025
     FM291300 12005KT P6SM SCT060=



000
FTUS42 KCAE 282320
TAFCUB
TAF
KCUB 282320Z 2900/2924 11006KT P6SM BKN150
      TEMPO 2900/2901 -SHRA BKN040
     FM290200 VRB03KT P6SM BKN150
     FM291000 VRB03KT 4SM BR BKN015
     FM291300 VRB04KT P6SM SCT025
     FM292000 09006KT P6SM SCT040=



000
FTUS42 KCAE 282320
TAFCUB
TAF
KCUB 282320Z 2900/2924 11006KT P6SM BKN150
      TEMPO 2900/2901 -SHRA BKN040
     FM290200 VRB03KT P6SM BKN150
     FM291000 VRB03KT 4SM BR BKN015
     FM291300 VRB04KT P6SM SCT025
     FM292000 09006KT P6SM SCT040=



000
FTUS42 KCAE 282320
TAFAGS
TAF
KAGS 282320Z 2900/2924 14007KT P6SM SCT100
     FM290100 VRB03KT P6SM BKN150
     FM291000 00000KT 2SM BR BKN007
     FM291300 12005KT P6SM SCT015
     FM292000 09006KT P6SM SCT040=



000
FTUS42 KCAE 282320
TAFCAE
TAF
KCAE 282320Z 2900/2924 11006KT P6SM BKN150
      TEMPO 2900/2901 -SHRA BKN040
     FM290200 VRB03KT P6SM BKN150
     FM291000 VRB03KT 4SM BR BKN015
     FM291300 VRB04KT P6SM SCT025
     FM292000 09006KT P6SM SCT040=



000
FTUS42 KCAE 282108 AAC
TAFCAE
TAF AMD
KCAE 282108Z 2821/2918 11010KT P6SM VCSH SCT050 BKN150
      TEMPO 2822/2823 -SHRA BKN040
     FM290000 VRB03KT P6SM SCT030 BKN150
     FM291000 VRB03KT 4SM BR BKN025
     FM291300 12005KT P6SM SCT060=



000
FTUS42 KCAE 282048 AAB
TAFCAE
TAF AMD
KCAE 282048Z 2821/2918 09012KT P6SM VCSH SCT050 BKN150
      TEMPO 2821/2823 -SHRA BKN040
     FM290000 VRB03KT P6SM SCT030 BKN150
     FM291000 VRB03KT 4SM BR BKN025
     FM291300 12005KT P6SM SCT060=



000
FTUS42 KCAE 282048 AAB
TAFCAE
TAF AMD
KCAE 282048Z 2821/2918 09012KT P6SM VCSH SCT050 BKN150
      TEMPO 2821/2823 -SHRA BKN040
     FM290000 VRB03KT P6SM SCT030 BKN150
     FM291000 VRB03KT 4SM BR BKN025
     FM291300 12005KT P6SM SCT060=



000
FTUS42 KCAE 282030 AAA
TAFDNL
TAF AMD
KDNL 282030Z 2821/2918 10005KT P6SM SCT050 SCT100
     FM290300 VRB03KT P6SM SCT030 BKN150
     FM291000 VRB03KT P6SM BKN025
     FM291300 12005KT P6SM SCT060=



000
FTUS42 KCAE 282030 AAA
TAFOGB
TAF AMD
KOGB 282030Z 2821/2918 09006KT P6SM SCT050 SCT100
     FM290100 VRB03KT P6SM SCT030 BKN150
     FM290800 00000KT 4SM BR BKN025
     FM291000 00000KT 2SM BR BKN007
     FM291200 VRB03KT 4SM BR BKN025
     FM291400 09005KT P6SM SCT060=



000
FTUS42 KCAE 282030 AAA
TAFCAE
TAF AMD
KCAE 282030Z 2821/2918 11006KT P6SM VCSH SCT050 BKN150
      TEMPO 2821/2823 -SHRA BKN040
     FM290000 VRB03KT P6SM SCT030 BKN150
     FM291000 VRB03KT 4SM BR BKN025
     FM291300 12005KT P6SM SCT060=



000
FTUS42 KCAE 282030 AAA
TAFCUB
TAF AMD
KCUB 282030Z 2821/2918 07005KT P6SM VCSH SCT050 BKN150
      TEMPO 2821/2823 -SHRA BKN040
     FM290000 VRB03KT P6SM SCT030 BKN150
     FM291000 00000KT 4SM BR BKN025
     FM291300 12005KT P6SM SCT060=



000
FTUS42 KCAE 282030 AAA
TAFAGS
TAF AMD
KAGS 282030Z 2821/2918 10008KT P6SM SCT050 SCT100
     FM290100 VRB03KT P6SM SCT030 BKN150
     FM291000 00000KT 2SM BR BKN007
     FM291300 12005KT P6SM SCT060=



000
FTUS42 KCAE 282030 AAA
TAFCUB
TAF AMD
KCUB 282030Z 2821/2918 07005KT P6SM VCSH SCT050 BKN150
      TEMPO 2821/2823 -SHRA BKN040
     FM290000 VRB03KT P6SM SCT030 BKN150
     FM291000 00000KT 4SM BR BKN025
     FM291300 12005KT P6SM SCT060=



000
FTUS42 KCAE 282030 AAA
TAFAGS
TAF AMD
KAGS 282030Z 2821/2918 10008KT P6SM SCT050 SCT100
     FM290100 VRB03KT P6SM SCT030 BKN150
     FM291000 00000KT 2SM BR BKN007
     FM291300 12005KT P6SM SCT060=



000
FTUS42 KCAE 282030 AAA
TAFDNL
TAF AMD
KDNL 282030Z 2821/2918 10005KT P6SM SCT050 SCT100
     FM290300 VRB03KT P6SM SCT030 BKN150
     FM291000 VRB03KT P6SM BKN025
     FM291300 12005KT P6SM SCT060=



000
FTUS42 KCAE 282030 AAA
TAFOGB
TAF AMD
KOGB 282030Z 2821/2918 09006KT P6SM SCT050 SCT100
     FM290100 VRB03KT P6SM SCT030 BKN150
     FM290800 00000KT 4SM BR BKN025
     FM291000 00000KT 2SM BR BKN007
     FM291200 VRB03KT 4SM BR BKN025
     FM291400 09005KT P6SM SCT060=



000
FTUS42 KCAE 282030 AAA
TAFCAE
TAF AMD
KCAE 282030Z 2821/2918 11006KT P6SM VCSH SCT050 BKN150
      TEMPO 2821/2823 -SHRA BKN040
     FM290000 VRB03KT P6SM SCT030 BKN150
     FM291000 VRB03KT 4SM BR BKN025
     FM291300 12005KT P6SM SCT060=



000
FTUS42 KCAE 281742
TAFCAE
TAF
KCAE 281742Z 2818/2918 11006KT P6SM VCSH SCT050 BKN150
      TEMPO 2818/2820 -SHRA BKN040
     FM290000 VRB03KT P6SM SCT030 BKN150
     FM291000 VRB03KT 4SM BR BKN025
     FM291300 12005KT P6SM SCT060=



000
FTUS42 KCAE 281742
TAFOGB
TAF
KOGB 281742Z 2818/2918 09006KT P6SM SCT050 SCT100
     FM290100 VRB03KT P6SM SCT030 BKN150
     FM290800 00000KT 4SM BR BKN025
     FM291000 00000KT 2SM BR BKN007
     FM291200 VRB03KT 4SM BR BKN025
     FM291400 09005KT P6SM SCT060=



000
FTUS42 KCAE 281742
TAFCUB
TAF
KCUB 281742Z 2818/2918 11005KT P6SM VCSH SCT050 BKN150
      TEMPO 2818/2820 -SHRA BKN040
     FM290000 VRB03KT P6SM SCT030 BKN150
     FM291000 00000KT 4SM BR BKN025
     FM291300 12005KT P6SM SCT060=



000
FTUS42 KCAE 281742
TAFAGS
TAF
KAGS 281742Z 2818/2918 10006KT P6SM SCT050 SCT100
     FM290100 VRB03KT P6SM SCT030 BKN150
     FM291000 00000KT 2SM BR BKN007
     FM291300 12005KT P6SM SCT060=



000
FTUS42 KCAE 281742
TAFDNL
TAF
KDNL 281742Z 2818/2918 10005KT P6SM SCT050 SCT100
     FM290300 VRB03KT P6SM SCT030 BKN150
     FM291000 VRB03KT P6SM BKN025
     FM291300 12005KT P6SM SCT060=



000
FTUS42 KCAE 281613 CCA
TAFCUB
TAF COR
KCUB 281613Z 2816/2912 11005KT P6SM VCSH SCT050 BKN150
      TEMPO 2816/2818 -SHRA BKN040
     FM290000 VRB03KT P6SM SCT030 BKN150
     FM291000 00000KT 4SM BR BKN015=



000
FTUS42 KCAE 281613 CCA
TAFCAE
TAF COR
KCAE 281613Z 2816/2912 11006KT P6SM VCSH SCT050 BKN150
      TEMPO 2816/2818 -SHRA BKN040
     FM290000 VRB03KT P6SM SCT030 BKN150
     FM291000 VRB03KT 4SM BR BKN015=



000
FTUS42 KCAE 281608 AAB
TAFCAE
TAF AMD
KCAE 281608Z 2816/2912 11006KT P6SM VCSH SCT050 BKN150
      TEMPO 2816/2818 -SHRA BKN030
     FM290000 VRB03KT P6SM SCT030 BKN150
     FM291000 VRB03KT 4SM BR BKN015=



000
FTUS42 KCAE 281608 AAB
TAFCUB
TAF AMD
KCUB 281608Z 2816/2912 11005KT P6SM VCSH SCT050 BKN150
      TEMPO 2816/2818 -SHRA BKN030
     FM290000 VRB03KT P6SM SCT030 BKN150
     FM291000 00000KT 4SM BR BKN015=



000
FTUS42 KCAE 281456 AAB
TAFCAE
TAF AMD
KCAE 281456Z 2815/2912 11006KT P6SM SCT050 BKN150
     FM290000 VRB03KT P6SM SCT030 BKN150
     FM291000 VRB03KT 4SM BR BKN015=



000
FTUS42 KCAE 281456 AAA
TAFDNL
TAF AMD
KDNL 281456Z 2815/2912 10005KT P6SM SCT050
     FM290300 VRB03KT P6SM SCT030 BKN150
     FM291000 VRB03KT P6SM BKN025=



000
FTUS42 KCAE 281456 AAA
TAFCUB
TAF AMD
KCUB 281456Z 2815/2912 11005KT P6SM SCT050 BKN150
     FM290000 VRB03KT P6SM SCT030 BKN150
     FM291000 00000KT 4SM BR BKN015=



000
FTUS42 KCAE 281456 AAB
TAFOGB
TAF AMD
KOGB 281456Z 2815/2912 09006KT P6SM SCT050 SCT150
     FM290100 VRB03KT P6SM SCT030 BKN150
     FM290800 00000KT 4SM BR BKN025
     FM291000 00000KT 2SM BR BKN007=



000
FTUS42 KCAE 281456 AAA
TAFAGS
TAF AMD
KAGS 281456Z 2815/2912 10006KT P6SM SCT050
     FM290100 VRB03KT P6SM SCT030 BKN150
     FM291000 00000KT 2SM BR BKN007=



000
FTUS42 KCAE 281225 AAA
TAFOGB
TAF AMD
KOGB 281225Z 2812/2912 VRB03KT P6SM SCT015 SCT150
      TEMPO 2812/2813 08004KT P6SM BKN015
     FM281600 07006KT P6SM SCT040
     FM290100 VRB03KT P6SM SCT040 BKN150=



000
FTUS42 KCAE 281225 AAA
TAFOGB
TAF AMD
KOGB 281225Z 2812/2912 VRB03KT P6SM SCT015 SCT150
      TEMPO 2812/2813 08004KT P6SM BKN015
     FM281600 07006KT P6SM SCT040
     FM290100 VRB03KT P6SM SCT040 BKN150=



000
FTUS42 KCAE 281133
TAFAGS
TAF
KAGS 281133Z 2812/2912 VRB03KT P6SM SCT150
     FM281600 08006KT P6SM SCT040
     FM290100 VRB03KT P6SM SCT040 BKN150=



000
FTUS42 KCAE 281133
TAFOGB
TAF
KOGB 281133Z 2812/2912 VRB03KT P6SM FEW035 SCT150
     FM281600 07006KT P6SM SCT040
     FM290100 VRB03KT P6SM SCT040 BKN150=



000
FTUS42 KCAE 281133
TAFDNL
TAF
KDNL 281133Z 2812/2912 VRB04KT P6SM SCT030
     FM281600 07005KT P6SM SCT040
     FM290300 VRB03KT P6SM SCT040 BKN150=



000
FTUS42 KCAE 281133
TAFCUB
TAF
KCUB 281133Z 2812/2912 VRB03KT P6SM FEW050 BKN150
     FM281600 11005KT P6SM SCT040
     FM290000 VRB03KT P6SM SCT040 BKN150=



000
FTUS42 KCAE 281133
TAFCAE
TAF
KCAE 281133Z 2812/2912 11004KT P6SM FEW050 BKN150
     FM281600 11005KT P6SM SCT040
     FM290000 VRB03KT P6SM SCT040 BKN150=



000
FTUS42 KCAE 281133
TAFCUB
TAF
KCUB 281133Z 2812/2912 VRB03KT P6SM FEW050 BKN150
     FM281600 11005KT P6SM SCT040
     FM290000 VRB03KT P6SM SCT040 BKN150=



000
FTUS42 KCAE 281133
TAFOGB
TAF
KOGB 281133Z 2812/2912 VRB03KT P6SM FEW035 SCT150
     FM281600 07006KT P6SM SCT040
     FM290100 VRB03KT P6SM SCT040 BKN150=



000
FTUS42 KCAE 281133
TAFCAE
TAF
KCAE 281133Z 2812/2912 11004KT P6SM FEW050 BKN150
     FM281600 11005KT P6SM SCT040
     FM290000 VRB03KT P6SM SCT040 BKN150=



000
FTUS42 KCAE 281133
TAFDNL
TAF
KDNL 281133Z 2812/2912 VRB04KT P6SM SCT030
     FM281600 07005KT P6SM SCT040
     FM290300 VRB03KT P6SM SCT040 BKN150=



000
FTUS42 KCAE 281133
TAFAGS
TAF
KAGS 281133Z 2812/2912 VRB03KT P6SM SCT150
     FM281600 08006KT P6SM SCT040
     FM290100 VRB03KT P6SM SCT040 BKN150=



000
FTUS42 KCAE 281030 AAB
TAFCUB
TAF AMD
KCUB 281030Z 2811/2906 VRB03KT P6SM FEW050 BKN150
     FM281600 11005KT P6SM SCT040=



000
FTUS42 KCAE 281030 AAB
TAFCUB
TAF AMD
KCUB 281030Z 2811/2906 VRB03KT P6SM FEW050 BKN150
     FM281600 11005KT P6SM SCT040=



000
FTUS42 KCAE 281029 AAC
TAFCAE
TAF AMD
KCAE 281029Z 2810/2906 11004KT P6SM FEW050 BKN150
     FM281600 11005KT P6SM SCT040=



000
FTUS42 KCAE 281027 AAB
TAFAGS
TAF AMD
KAGS 281027Z 2810/2906 VRB03KT P6SM SCT150
      TEMPO 2810/2812 5SM BR SCT007
     FM281600 08006KT P6SM SCT040=



000
FTUS42 KCAE 281026 AAB
TAFOGB
TAF AMD
KOGB 281026Z 2810/2906 VRB03KT P6SM FEW035 SCT150
      TEMPO 2810/2812 5SM BR SCT004
     FM281600 07006KT P6SM SCT040=



000
FTUS42 KCAE 280843 AAA
TAFCAE
TAF AMD
KCAE 280843Z 2809/2906 11004KT P6SM VCSH FEW050 BKN150
     FM281200 VRB04KT P6SM SCT025 BKN050
     FM281600 11005KT P6SM SCT040=



000
FTUS42 KCAE 280843 AAA
TAFOGB
TAF AMD
KOGB 280843Z 2809/2906 VRB04KT P6SM SCT050 BKN150
     FM281000 VRB03KT 5SM BR FEW003 SCT150
      TEMPO 2811/2813 2SM BR BKN003
     FM281300 VRB03KT P6SM SCT035
     FM281600 07006KT P6SM SCT040=



000
FTUS42 KCAE 280843 AAA
TAFAGS
TAF AMD
KAGS 280843Z 2809/2906 VRB03KT P6SM SCT150
     FM281000 VRB03KT 5SM BR SCT007
      TEMPO 2810/2812 2SM BR
     FM281300 VRB03KT P6SM SCT015
     FM281600 08006KT P6SM SCT040=



000
FTUS42 KCAE 280843 AAA
TAFCUB
TAF AMD
KCUB 280843Z 2809/2906 VRB03KT P6SM VCSH FEW050 BKN150
     FM281200 VRB04KT P6SM SCT025 BKN050
     FM281600 11005KT P6SM SCT040=



000
FTUS42 KCAE 280843 AAA
TAFDNL
TAF AMD
KDNL 280843Z 2809/2906 VRB04KT P6SM SCT030
     FM281600 06005KT P6SM SCT040=



000
FTUS42 KCAE 280538
TAFCUB
TAF
KCUB 280538Z 2806/2906 VRB03KT P6SM VCSH SCT020 BKN050 BKN150
      TEMPO 2806/2808 5SM -SHRA BR BKN022 OVC040
     FM281200 VRB04KT P6SM SCT025 BKN050
     FM281600 11005KT P6SM SCT040=



000
FTUS42 KCAE 280538
TAFCAE
TAF
KCAE 280538Z 2806/2906 11004KT P6SM VCSH SCT023 BKN050 BKN150
      TEMPO 2806/2808 5SM -SHRA BR BKN023 OVC040
     FM281200 VRB04KT P6SM SCT025 BKN050
     FM281600 11005KT P6SM SCT040=



000
FTUS42 KCAE 280538
TAFAGS
TAF
KAGS 280538Z 2806/2906 14004KT P6SM SCT150
     FM280900 00000KT 5SM BR SCT007
      TEMPO 2810/2812 2SM BR
     FM281300 VRB03KT P6SM SCT015
     FM281600 08006KT P6SM SCT040=



000
FTUS42 KCAE 280538
TAFOGB
TAF
KOGB 280538Z 2806/2906 VRB04KT P6SM SCT035 BKN150
      TEMPO 2807/2809 5SM -SHRA BR BKN022 OVC040
     FM281000 VRB03KT 5SM BR FEW003 SCT025 BKN150
     FM281300 VRB03KT P6SM SCT035
     FM281600 07006KT P6SM SCT040=



000
FTUS42 KCAE 280538
TAFDNL
TAF
KDNL 280538Z 2806/2906 13004KT P6SM SCT150
     FM280900 VRB04KT P6SM SCT030
     FM281600 06005KT P6SM SCT040=



000
FTUS42 KCAE 280538
TAFCAE
TAF
KCAE 280538Z 2806/2906 11004KT P6SM VCSH SCT023 BKN050 BKN150
      TEMPO 2806/2808 5SM -SHRA BR BKN023 OVC040
     FM281200 VRB04KT P6SM SCT025 BKN050
     FM281600 11005KT P6SM SCT040=



000
FTUS42 KCAE 280520
TAFCUB
TAF
KCUB 280520Z 2806/2906 VRB03KT P6SM SCT080
     FM280900 00000KT P6SM SCT015
     FM281400 VRB04KT P6SM SCT030
     FM281900 06005KT P6SM SCT040=



000
FTUS42 KCAE 280520
TAFCAE
TAF
KCAE 280520Z 2806/2906 11004KT P6SM SCT080
     FM280900 00000KT P6SM SCT015
     FM281400 VRB04KT P6SM SCT030
     FM281900 06005KT P6SM SCT040=



000
FTUS42 KCAE 280234 AAA
TAFCUB
TAF AMD
KCUB 280234Z 2803/2824 VRB03KT P6SM SCT200
     FM280900 00000KT P6SM SCT015
     FM281400 VRB04KT P6SM SCT030
     FM281900 06005KT P6SM SCT040=



000
FTUS42 KCAE 280234 AAB
TAFCAE
TAF AMD
KCAE 280234Z 2803/2824 11004KT P6SM SCT200
     FM280900 00000KT P6SM SCT015
     FM281400 VRB04KT P6SM SCT030
     FM281900 06005KT P6SM SCT040=



000
FTUS42 KCAE 280234 AAA
TAFDNL
TAF AMD
KDNL 280234Z 2803/2824 15003KT P6SM SCT200
     FM280900 00000KT P6SM SCT015
     FM281400 VRB04KT P6SM SCT030
     FM281900 06005KT P6SM SCT040=



000
FTUS42 KCAE 280234 AAA
TAFOGB
TAF AMD
KOGB 280234Z 2803/2824 16004KT P6SM SCT200
     FM280900 00000KT 6SM BR SCT001
      TEMPO 2811/2813 3SM BR BKN001
     FM281400 VRB03KT P6SM SCT015
     FM281900 08006KT P6SM SCT040=



000
FTUS42 KCAE 280234 AAA
TAFAGS
TAF AMD
KAGS 280234Z 2803/2824 15004KT P6SM SCT200
     FM280900 00000KT 6SM BR SCT001
      TEMPO 2811/2813 3SM BR BKN001
     FM281400 VRB03KT P6SM SCT015
     FM281900 08006KT P6SM SCT040=



000
FTUS42 KCAE 280002 AAA
TAFCAE
TAF AMD
KCAE 280002Z 2800/2824 11004KT P6SM SCT200
     FM280900 00000KT P6SM SCT015
     FM281400 VRB04KT P6SM SCT030
     FM281900 06005KT P6SM SCT040=



000
FTUS42 KCAE 280002 AAA
TAFCAE
TAF AMD
KCAE 280002Z 2800/2824 11004KT P6SM SCT200
     FM280900 00000KT P6SM SCT015
     FM281400 VRB04KT P6SM SCT030
     FM281900 06005KT P6SM SCT040=



000
FTUS42 KCAE 272322
TAFOGB
TAF
KOGB 272322Z 2800/2824 00000KT P6SM SCT200
     FM280900 00000KT 6SM BR SCT001
      TEMPO 2811/2813 2SM BR BKN001
     FM281400 VRB03KT P6SM SCT015
     FM281900 08006KT P6SM SCT040=



000
FTUS42 KCAE 272322
TAFOGB
TAF
KOGB 272322Z 2800/2824 00000KT P6SM SCT200
     FM280900 00000KT 6SM BR SCT001
      TEMPO 2811/2813 2SM BR BKN001
     FM281400 VRB03KT P6SM SCT015
     FM281900 08006KT P6SM SCT040=



000
FTUS42 KCAE 272322
TAFAGS
TAF
KAGS 272322Z 2800/2824 00000KT P6SM SCT200
     FM280900 00000KT 6SM BR SCT001
      TEMPO 2811/2813 2SM BR BKN001
     FM281400 VRB03KT P6SM SCT015
     FM281900 08006KT P6SM SCT040=



000
FTUS42 KCAE 272322
TAFCAE
TAF
KCAE 272322Z 2800/2824 VRB03KT P6SM SCT200
     FM280900 00000KT P6SM SCT015
     FM281400 VRB04KT P6SM SCT030
     FM281900 06005KT P6SM SCT040=



000
FTUS42 KCAE 272322
TAFDNL
TAF
KDNL 272322Z 2800/2824 VRB03KT P6SM SCT200
     FM280900 00000KT P6SM SCT015
     FM281400 VRB04KT P6SM SCT030
     FM281900 06005KT P6SM SCT040=



000
FTUS42 KCAE 272322
TAFDNL
TAF
KDNL 272322Z 2800/2824 VRB03KT P6SM SCT200
     FM280900 00000KT P6SM SCT015
     FM281400 VRB04KT P6SM SCT030
     FM281900 06005KT P6SM SCT040=



000
FTUS42 KCAE 272322
TAFCUB
TAF
KCUB 272322Z 2800/2824 VRB03KT P6SM SCT200
     FM280900 00000KT P6SM SCT015
     FM281400 VRB04KT P6SM SCT030
     FM281900 06005KT P6SM SCT040=



000
FTUS42 KCAE 272322
TAFCAE
TAF
KCAE 272322Z 2800/2824 VRB03KT P6SM SCT200
     FM280900 00000KT P6SM SCT015
     FM281400 VRB04KT P6SM SCT030
     FM281900 06005KT P6SM SCT040=



000
FTUS42 KCAE 272322
TAFAGS
TAF
KAGS 272322Z 2800/2824 00000KT P6SM SCT200
     FM280900 00000KT 6SM BR SCT001
      TEMPO 2811/2813 2SM BR BKN001
     FM281400 VRB03KT P6SM SCT015
     FM281900 08006KT P6SM SCT040=



000
FTUS42 KCAE 272322
TAFCUB
TAF
KCUB 272322Z 2800/2824 VRB03KT P6SM SCT200
     FM280900 00000KT P6SM SCT015
     FM281400 VRB04KT P6SM SCT030
     FM281900 06005KT P6SM SCT040=



000
FTUS42 KCAE 272030 AAA
TAFCAE
TAF AMD
KCAE 272030Z 2721/2818 04006KT P6SM SCT080
     FM280000 VRB03KT P6SM SCT200
     FM281400 VRB04KT P6SM SCT045=



000
FTUS42 KCAE 272030 AAA
TAFAGS
TAF AMD
KAGS 272030Z 2721/2818 VRB05KT P6SM SCT080
     FM280000 00000KT P6SM SCT200
     FM280900 00000KT 6SM BR SCT001
      TEMPO 2811/2813 2SM BR BKN001
     FM281400 VRB03KT P6SM SCT012 SCT045=



000
FTUS42 KCAE 272030 AAA
TAFOGB
TAF AMD
KOGB 272030Z 2721/2818 05006KT P6SM SCT080
     FM280000 00000KT P6SM SCT200
     FM280900 00000KT 6SM BR SCT001
      TEMPO 2811/2813 2SM BR BKN001
     FM281400 VRB03KT P6SM SCT012 SCT045=



000
FTUS42 KCAE 272030 AAA
TAFCUB
TAF AMD
KCUB 272030Z 2721/2818 04005KT P6SM SCT080
     FM280000 00000KT P6SM SCT200
     FM281400 VRB04KT P6SM SCT045=



000
FTUS42 KCAE 272030 AAA
TAFDNL
TAF AMD
KDNL 272030Z 2721/2818 VRB05KT P6SM SCT080
     FM280000 VRB03KT P6SM SCT200
     FM281400 VRB03KT P6SM SCT045=



000
FTUS42 KCAE 271726
TAFCAE
TAF
KCAE 271726Z 2718/2818 04006KT P6SM SCT060 SCT200
     FM280000 VRB03KT P6SM SCT200
     FM281400 VRB04KT P6SM SCT045=



000
FTUS42 KCAE 271726
TAFAGS
TAF
KAGS 271726Z 2718/2818 VRB05KT P6SM SCT060 SCT200
     FM280000 00000KT P6SM SCT200
     FM280900 00000KT 6SM BR SCT001
      TEMPO 2811/2813 2SM BR BKN001
     FM281400 VRB03KT P6SM SCT012 SCT045=



000
FTUS42 KCAE 271726
TAFCUB
TAF
KCUB 271726Z 2718/2818 04005KT P6SM SCT060 SCT200
     FM280000 00000KT P6SM SCT200
     FM281400 VRB04KT P6SM SCT045=



000
FTUS42 KCAE 271726
TAFOGB
TAF
KOGB 271726Z 2718/2818 05006KT P6SM SCT060 SCT200
     FM280000 00000KT P6SM SCT200
     FM280900 00000KT 6SM BR SCT001
      TEMPO 2811/2813 2SM BR BKN001
     FM281400 VRB03KT P6SM SCT012 SCT045=



000
FTUS42 KCAE 271726
TAFDNL
TAF
KDNL 271726Z 2718/2818 VRB05KT P6SM SCT060 SCT200
     FM280000 VRB03KT P6SM SCT200
     FM281400 VRB03KT P6SM SCT045=



000
FTUS42 KCAE 271726
TAFAGS
TAF
KAGS 271726Z 2718/2818 VRB05KT P6SM SCT060 SCT200
     FM280000 00000KT P6SM SCT200
     FM280900 00000KT 6SM BR SCT001
      TEMPO 2811/2813 2SM BR BKN001
     FM281400 VRB03KT P6SM SCT012 SCT045=



000
FTUS42 KCAE 271726
TAFCAE
TAF
KCAE 271726Z 2718/2818 04006KT P6SM SCT060 SCT200
     FM280000 VRB03KT P6SM SCT200
     FM281400 VRB04KT P6SM SCT045=



000
FTUS42 KCAE 271726
TAFOGB
TAF
KOGB 271726Z 2718/2818 05006KT P6SM SCT060 SCT200
     FM280000 00000KT P6SM SCT200
     FM280900 00000KT 6SM BR SCT001
      TEMPO 2811/2813 2SM BR BKN001
     FM281400 VRB03KT P6SM SCT012 SCT045=



000
FTUS42 KCAE 271726
TAFDNL
TAF
KDNL 271726Z 2718/2818 VRB05KT P6SM SCT060 SCT200
     FM280000 VRB03KT P6SM SCT200
     FM281400 VRB03KT P6SM SCT045=



000
FTUS42 KCAE 271726
TAFCUB
TAF
KCUB 271726Z 2718/2818 04005KT P6SM SCT060 SCT200
     FM280000 00000KT P6SM SCT200
     FM281400 VRB04KT P6SM SCT045=



000
FTUS42 KCAE 271500 AAA
TAFAGS
TAF AMD
KAGS 271500Z 2715/2812 05004KT P6SM SCT060 SCT200
     FM280000 VRB03KT P6SM SCT200=



000
FTUS42 KCAE 271500 AAA
TAFDNL
TAF AMD
KDNL 271500Z 2715/2812 05004KT P6SM SCT060 SCT200
     FM280000 VRB03KT P6SM SCT200=



000
FTUS42 KCAE 271500 AAA
TAFCUB
TAF AMD
KCUB 271500Z 2715/2812 09005KT P6SM SCT060 SCT200
     FM280000 VRB03KT P6SM SCT200=



000
FTUS42 KCAE 271500 AAC
TAFOGB
TAF AMD
KOGB 271500Z 2715/2812 08006KT P6SM SCT060 SCT200
     FM280000 VRB03KT P6SM SCT200=



000
FTUS42 KCAE 271500 AAC
TAFCAE
TAF AMD
KCAE 271500Z 2715/2812 09006KT P6SM SCT060 SCT200
     FM280000 VRB03KT P6SM SCT200=



000
FTUS42 KCAE 271500 AAC
TAFOGB
TAF AMD
KOGB 271500Z 2715/2812 08006KT P6SM SCT060 SCT200
     FM280000 VRB03KT P6SM SCT200=



000
FTUS42 KCAE 271500 AAC
TAFCAE
TAF AMD
KCAE 271500Z 2715/2812 09006KT P6SM SCT060 SCT200
     FM280000 VRB03KT P6SM SCT200=



000
FTUS42 KCAE 271500 AAA
TAFCUB
TAF AMD
KCUB 271500Z 2715/2812 09005KT P6SM SCT060 SCT200
     FM280000 VRB03KT P6SM SCT200=



000
FTUS42 KCAE 271500 AAA
TAFAGS
TAF AMD
KAGS 271500Z 2715/2812 05004KT P6SM SCT060 SCT200
     FM280000 VRB03KT P6SM SCT200=



000
FTUS42 KCAE 271500 AAA
TAFDNL
TAF AMD
KDNL 271500Z 2715/2812 05004KT P6SM SCT060 SCT200
     FM280000 VRB03KT P6SM SCT200=



000
FTUS42 KCAE 271400 AAB
TAFOGB
TAF AMD
KOGB 271400Z 2714/2812 VRB04KT P6SM SCT012 SCT050
     FM271500 10006KT P6SM SCT050 SCT200
     FM280000 VRB03KT P6SM SCT200=



000
FTUS42 KCAE 271400 AAB
TAFOGB
TAF AMD
KOGB 271400Z 2714/2812 VRB04KT P6SM SCT012 SCT050
     FM271500 10006KT P6SM SCT050 SCT200
     FM280000 VRB03KT P6SM SCT200=



000
FTUS42 KCAE 271312 AAA
TAFOGB
TAF AMD
KOGB 271312Z 2713/2812 05004KT 6SM BR BKN003
      TEMPO 2714/2715 SCT003 SCT200
     FM271500 10006KT P6SM SCT050 SCT200
     FM280000 VRB03KT P6SM SCT200=



000
FTUS42 KCAE 271312 AAA
TAFOGB
TAF AMD
KOGB 271312Z 2713/2812 05004KT 6SM BR BKN003
      TEMPO 2714/2715 SCT003 SCT200
     FM271500 10006KT P6SM SCT050 SCT200
     FM280000 VRB03KT P6SM SCT200=



000
FTUS42 KCAE 271258 AAA
TAFCAE
TAF AMD
KCAE 271258Z 2713/2812 VRB03KT P6SM FEW006 SCT040
      TEMPO 2713/2714 BKN006
     FM271400 10006KT P6SM SCT050 SCT200
     FM280000 VRB03KT P6SM SCT200=



000
FTUS42 KCAE 271139
TAFAGS
TAF
KAGS 271139Z 2712/2812 VRB04KT P6SM FEW200
     FM271400 07006KT P6SM SCT050 SCT200
     FM280000 VRB03KT P6SM SCT200=



000
FTUS42 KCAE 271139
TAFCUB
TAF
KCUB 271139Z 2712/2812 00000KT 2SM BR OVC003
     FM271300 VRB03KT 6SM BR BKN005
      TEMPO 2713/2714 VRB04KT SCT006 SCT040
     FM271400 10005KT P6SM SCT050 SCT200
     FM280000 VRB03KT P6SM SCT200=



000
FTUS42 KCAE 271139
TAFDNL
TAF
KDNL 271139Z 2712/2812 VRB03KT P6SM FEW200
     FM271500 07006KT P6SM SCT050 SCT200
     FM280000 VRB03KT P6SM SCT200=



000
FTUS42 KCAE 271139
TAFCAE
TAF
KCAE 271139Z 2712/2812 VRB03KT P6SM FEW006 SCT040
      TEMPO 2712/2713 BKN006
     FM271400 10006KT P6SM SCT050 SCT200
     FM280000 VRB03KT P6SM SCT200=



000
FTUS42 KCAE 271139
TAFOGB
TAF
KOGB 271139Z 2712/2812 00000KT 6SM BR OVC005
     FM271300 VRB03KT P6SM BKN006
      TEMPO 2713/2714 VRB04KT P6SM SCT006 SCT200
     FM271400 10006KT P6SM SCT050 SCT200
     FM280000 VRB03KT P6SM SCT200=



000
FTUS42 KCAE 271036 AAB
TAFOGB
TAF AMD
KOGB 271036Z 2711/2806 VRB03KT P6SM FEW003 SCT200
      TEMPO 2711/2713 6SM BR BKN003
     FM271400 10006KT P6SM SCT050 SCT200
     FM280000 VRB03KT P6SM SCT200=



000
FTUS42 KCAE 271035 AAB
TAFCUB
TAF AMD
KCUB 271035Z 2711/2806 VRB03KT P6SM FEW003 SCT200
      TEMPO 2711/2713 6SM BR BKN003
     FM271500 10005KT P6SM SCT050 SCT200
     FM280000 VRB03KT P6SM SCT200=



000
FTUS42 KCAE 270916 AAA
TAFDNL
TAF AMD
KDNL 270916Z 2709/2806 VRB03KT P6SM FEW200
     FM271500 07006KT P6SM SCT050 SCT200
     FM280000 VRB03KT P6SM SCT200=



000
FTUS42 KCAE 270916 AAA
TAFAGS
TAF AMD
KAGS 270916Z 2709/2806 VRB03KT 4SM BR FEW200
      TEMPO 2709/2712 1SM BR
     FM271200 VRB04KT P6SM FEW200
     FM271400 07006KT P6SM SCT050 SCT200
     FM280000 VRB03KT P6SM SCT200=



000
FTUS42 KCAE 270916 AAA
TAFAGS
TAF AMD
KAGS 270916Z 2709/2806 VRB03KT 4SM BR FEW200
      TEMPO 2709/2712 1SM BR
     FM271200 VRB04KT P6SM FEW200
     FM271400 07006KT P6SM SCT050 SCT200
     FM280000 VRB03KT P6SM SCT200=



000
FTUS42 KCAE 270916 AAA
TAFCUB
TAF AMD
KCUB 270916Z 2709/2806 VRB03KT P6SM FEW200
     FM271500 10005KT P6SM SCT050 SCT200
     FM280000 VRB03KT P6SM SCT200=



000
FTUS42 KCAE 270916 AAA
TAFOGB
TAF AMD
KOGB 270916Z 2709/2806 VRB03KT P6SM FEW200
      TEMPO 2710/2712 4SM BR FEW200
     FM271400 10006KT P6SM SCT050 SCT200
     FM280000 VRB03KT P6SM SCT200=



000
FTUS42 KCAE 270916 AAA
TAFCAE
TAF AMD
KCAE 270916Z 2709/2806 VRB03KT P6SM FEW200
     FM271600 10006KT P6SM SCT050 SCT200
     FM280000 VRB03KT P6SM SCT200=



000
FTUS42 KCAE 270532
TAFCAE
TAF
KCAE 270532Z 2706/2806 VRB03KT P6SM FEW200
     FM271600 10006KT P6SM SCT050 SCT200
     FM280000 VRB03KT P6SM SCT200=



000
FTUS42 KCAE 270532
TAFDNL
TAF
KDNL 270532Z 2706/2806 VRB03KT P6SM FEW200
     FM271500 07006KT P6SM SCT050 SCT200
     FM280000 VRB03KT P6SM SCT200=



000
FTUS42 KCAE 270532
TAFAGS
TAF
KAGS 270532Z 2706/2806 VRB03KT P6SM FEW200
     FM270900 VRB03KT 4SM BR FEW200
      TEMPO 2709/2712 1SM BR
     FM271200 VRB04KT P6SM FEW200
     FM271400 07006KT P6SM SCT050 SCT200
     FM280000 VRB03KT P6SM SCT200=



000
FTUS42 KCAE 270532
TAFOGB
TAF
KOGB 270532Z 2706/2806 VRB03KT P6SM FEW200
     FM270900 VRB03KT 4SM BR FEW200
     FM271200 VRB03KT P6SM FEW200
     FM271400 10006KT P6SM SCT050 SCT200
     FM280000 VRB03KT P6SM SCT200=



000
FTUS42 KCAE 270532
TAFCUB
TAF
KCUB 270532Z 2706/2806 VRB03KT P6SM FEW200
     FM271500 10005KT P6SM SCT050 SCT200
     FM280000 VRB03KT P6SM SCT200=



000
FTUS42 KCAE 270228 AAA
TAFOGB
TAF AMD
KOGB 270228Z 2702/2724 00000KT P6SM FEW250
     FM270900 00000KT 4SM BR FEW250
     FM271200 00000KT P6SM FEW250
     FM271400 07007KT P6SM SCT050 SCT250=



000
FTUS42 KCAE 270228 AAA
TAFAGS
TAF AMD
KAGS 270228Z 2702/2724 00000KT P6SM FEW250
     FM270800 00000KT 4SM BR FEW250
      TEMPO 2709/2712 1SM BR
     FM271200 00000KT P6SM FEW250
     FM271400 07007KT P6SM SCT050 SCT250=



000
FTUS42 KCAE 270228 AAA
TAFCUB
TAF AMD
KCUB 270228Z 2702/2724 00000KT P6SM FEW250
     FM271500 VRB05KT P6SM SCT050 SCT250=



000
FTUS42 KCAE 270228 AAA
TAFDNL
TAF AMD
KDNL 270228Z 2702/2724 VRB03KT P6SM FEW250
     FM271500 07007KT P6SM SCT050=



000
FTUS42 KCAE 270228 AAA
TAFCAE
TAF AMD
KCAE 270228Z 2702/2724 VRB03KT P6SM FEW250
     FM271600 08008KT P6SM SCT050 SCT250=



000
FTUS42 KCAE 262326
TAFCAE
TAF
KCAE 262326Z 2700/2724 VRB03KT P6SM FEW250
     FM271600 08008KT P6SM SCT050 SCT250=



000
FTUS42 KCAE 262326
TAFCUB
TAF
KCUB 262326Z 2700/2724 00000KT P6SM FEW250
     FM271500 VRB05KT P6SM SCT050 SCT250=



000
FTUS42 KCAE 262326
TAFDNL
TAF
KDNL 262326Z 2700/2724 VRB04KT P6SM FEW250
     FM271500 07007KT P6SM SCT050=



000
FTUS42 KCAE 262326
TAFOGB
TAF
KOGB 262326Z 2700/2724 VRB03KT P6SM FEW250
     FM270900 00000KT 4SM BR FEW250
     FM271200 00000KT P6SM FEW250
     FM271400 07007KT P6SM SCT050 SCT250=



000
FTUS42 KCAE 262326
TAFAGS
TAF
KAGS 262326Z 2700/2724 VRB03KT P6SM FEW250
     FM270900 00000KT 4SM BR FEW250
     FM271200 00000KT P6SM FEW250
     FM271400 07007KT P6SM SCT050 SCT250=



000
FTUS42 KCAE 262326
TAFCAE
TAF
KCAE 262326Z 2700/2724 VRB03KT P6SM FEW250
     FM271600 08008KT P6SM SCT050 SCT250=



000
FTUS42 KCAE 262326
TAFCUB
TAF
KCUB 262326Z 2700/2724 00000KT P6SM FEW250
     FM271500 VRB05KT P6SM SCT050 SCT250=



000
FTUS42 KCAE 262326
TAFDNL
TAF
KDNL 262326Z 2700/2724 VRB04KT P6SM FEW250
     FM271500 07007KT P6SM SCT050=



000
FTUS42 KCAE 262326
TAFOGB
TAF
KOGB 262326Z 2700/2724 VRB03KT P6SM FEW250
     FM270900 00000KT 4SM BR FEW250
     FM271200 00000KT P6SM FEW250
     FM271400 07007KT P6SM SCT050 SCT250=



000
FTUS42 KCAE 262326
TAFAGS
TAF
KAGS 262326Z 2700/2724 VRB03KT P6SM FEW250
     FM270900 00000KT 4SM BR FEW250
     FM271200 00000KT P6SM FEW250
     FM271400 07007KT P6SM SCT050 SCT250=



000
FTUS42 KCAE 262041 AAA
TAFCAE
TAF AMD
KCAE 262041Z 2621/2718 09008KT P6SM FEW060
     FM262300 VRB03KT P6SM SCT250
     FM271500 07007KT P6SM SCT050=



000
FTUS42 KCAE 262041 AAA
TAFCUB
TAF AMD
KCUB 262041Z 2621/2718 VRB04KT P6SM FEW060
     FM262300 00000KT P6SM SCT250
     FM271500 07005KT P6SM SCT050=



000
FTUS42 KCAE 262041 AAA
TAFAGS
TAF AMD
KAGS 262041Z 2621/2718 09008KT P6SM FEW070
     FM262300 VRB03KT P6SM SCT050
     FM270300 VRB03KT 3SM BR SCT250
     FM271300 07007KT P6SM SCT050=



000
FTUS42 KCAE 262041 AAA
TAFDNL
TAF AMD
KDNL 262041Z 2621/2718 08008KT P6SM FEW070
     FM262300 VRB04KT P6SM SCT250
     FM271500 07007KT P6SM SCT050=



000
FTUS42 KCAE 262041 AAA
TAFOGB
TAF AMD
KOGB 262041Z 2621/2718 06007KT P6SM SKC
     FM262300 VRB03KT P6SM SCT250
     FM270900 VRB03KT 3SM BR SCT250
     FM271300 07007KT P6SM SCT050=



000
FTUS42 KCAE 262041 AAA
TAFCAE
TAF AMD
KCAE 262041Z 2621/2718 09008KT P6SM FEW060
     FM262300 VRB03KT P6SM SCT250
     FM271500 07007KT P6SM SCT050=



    US Dept of Commerce
    National Oceanic and Atmospheric Administration
    National Weather Service
    1325 East West Highway
    Silver Spring, MD 20910
    Page Author: NWS Internet Services Team
Disclaimer
Information Quality
Credits
Glossary
Privacy Policy
Freedom of Information Act (FOIA)
About Us
Career Opportunities